Time;durP1;ratioP1;P1;durP2;ratioP2;P2;SDS_P1;SDS_P2;PMS_P1;PMS_P2;Temp;Humidity;BMP_temperature;BMP_pressure;BME280_temperature;BME280_humidity;BME280_pressure;Samples;Min_cycle;Max_cycle;Signal;HPM_P1;HPM_P2
2021/01/06 00:00:14;;;;;;;;;;;1.40;99.90;;;;;;5097492;27;20122;-75
2021/01/06 00:02:40;;;;;;;6.50;3.78;;;1.40;99.90;;;;;;5094598;28;19916;-75
2021/01/06 00:05:09;;;;;;;5.72;3.50;;;1.40;99.90;;;;;;5096424;28;20059;-74
2021/01/06 00:07:35;;;;;;;7.00;3.60;;;1.50;99.90;;;;;;5100617;28;20040;-74
2021/01/06 00:10:01;;;;;;;6.93;3.50;;;1.80;99.90;;;;;;5100325;28;20404;-73
2021/01/06 00:12:27;;;;;;;8.38;4.07;;;1.50;99.90;;;;;;5092879;28;20043;-74
2021/01/06 00:14:53;;;;;;;7.28;3.67;;;1.50;99.90;;;;;;5096684;28;20031;-74
2021/01/06 00:17:18;;;;;;;8.52;3.65;;;1.50;99.90;;;;;;5096028;28;20036;-74
2021/01/06 00:19:44;;;;;;;8.32;3.75;;;1.50;99.90;;;;;;5098986;28;20063;-73
2021/01/06 00:22:10;;;;;;;9.18;4.15;;;1.50;99.90;;;;;;5102196;28;20028;-75
2021/01/06 00:24:36;;;;;;;7.75;3.80;;;1.50;99.90;;;;;;5102047;28;20032;-74
2021/01/06 00:27:01;;;;;;;8.98;3.97;;;1.50;99.90;;;;;;5091395;28;20499;-75
2021/01/06 00:29:27;;;;;;;5.75;4.05;;;1.50;99.90;;;;;;5094696;28;20413;-75
2021/01/06 00:31:53;;;;;;;7.82;3.80;;;1.50;99.90;;;;;;5096381;28;20036;-74
2021/01/06 00:34:19;;;;;;;10.80;3.53;;;1.60;99.90;;;;;;5091782;28;20446;-74
2021/01/06 00:36:47;;;;;;;6.63;3.80;;;1.60;99.90;;;;;;5102196;28;20079;-73
2021/01/06 00:39:13;;;;;;;7.78;3.90;;;1.60;99.90;;;;;;5108080;28;20046;-74
2021/01/06 00:41:39;;;;;;;7.18;3.97;;;1.60;99.90;;;;;;5091614;28;20043;-73
2021/01/06 00:44:05;;;;;;;10.00;4.50;;;1.60;99.90;;;;;;5091151;28;20047;-73
2021/01/06 00:46:34;;;;;;;6.78;3.90;;;1.60;99.90;;;;;;5090611;28;20040;-74
2021/01/06 00:49:01;;;;;;;8.27;3.92;;;1.60;99.90;;;;;;5091664;28;20036;-74
2021/01/06 00:51:27;;;;;;;8.88;4.22;;;1.60;99.90;;;;;;5105461;28;20469;-74
2021/01/06 00:53:53;;;;;;;10.77;3.97;;;1.60;99.90;;;;;;5089818;28;20143;-76
2021/01/06 00:56:31;;;;;;;12.07;4.45;;;1.60;99.90;;;;;;5091056;28;20044;-74
2021/01/06 00:58:57;;;;;;;10.70;4.20;;;1.60;99.90;;;;;;5091340;28;20036;-74
2021/01/06 01:01:25;;;;;;;6.50;3.85;;;1.60;99.90;;;;;;5124645;28;20035;-73
2021/01/06 01:03:51;;;;;;;11.00;4.35;;;1.60;99.90;;;;;;5110989;28;20039;-72
2021/01/06 01:06:28;;;;;;;8.32;4.03;;;1.70;99.90;;;;;;5096187;28;20036;-74
2021/01/06 01:08:55;;;;;;;7.93;4.10;;;1.70;99.90;;;;;;5104062;28;20052;-74
2021/01/06 01:11:22;;;;;;;7.15;3.92;;;1.70;99.90;;;;;;5092870;28;20051;-75
2021/01/06 01:13:52;;;;;;;6.93;3.67;;;1.70;99.90;;;;;;5090784;28;20036;-74
2021/01/06 01:16:19;;;;;;;8.88;4.40;;;1.70;99.90;;;;;;5108692;28;20040;-74
2021/01/06 01:18:46;;;;;;;10.38;5.35;;;1.80;99.90;;;;;;5102082;28;20501;-74
2021/01/06 01:21:11;;;;;;;9.27;4.65;;;1.70;99.90;;;;;;5093306;28;20036;-74
2021/01/06 01:23:37;;;;;;;8.30;4.25;;;1.70;99.90;;;;;;5109535;28;20046;-74
2021/01/06 01:26:04;;;;;;;12.82;4.82;;;1.80;99.90;;;;;;5097304;28;20044;-76
2021/01/06 01:28:29;;;;;;;;;;;1.70;99.90;;;;;;5093705;28;20058;-75
2021/01/06 01:30:56;;;;;;;9.10;4.57;;;2.00;99.90;;;;;;5094418;28;19920;-74
2021/01/06 01:33:25;;;;;;;7.35;4.30;;;1.70;99.90;;;;;;5095317;28;20063;-74
2021/01/06 01:35:51;;;;;;;8.40;4.78;;;1.80;99.90;;;;;;5110273;28;20089;-74
2021/01/06 01:38:24;;;;;;;10.10;5.78;;;1.80;99.90;;;;;;5115714;28;20110;-75
2021/01/06 01:41:21;;;;;;;11.35;5.00;;;1.80;99.90;;;;;;5103148;28;20032;-75
2021/01/06 01:43:47;;;;;;;9.13;4.97;;;1.80;99.90;;;;;;5095546;28;20079;-74
2021/01/06 01:46:36;;;;;;;12.00;4.90;;;1.80;99.90;;;;;;5098486;28;20063;-74
2021/01/06 01:49:05;;;;;;;6.80;4.13;;;1.80;99.90;;;;;;5096115;28;20040;-75
2021/01/06 01:51:43;;;;;;;11.88;5.05;;;1.80;99.90;;;;;;5103249;28;20065;-74
2021/01/06 01:54:14;;;;;;;8.90;5.00;;;1.80;99.90;;;;;;5094894;28;20044;-74
2021/01/06 01:57:00;;;;;;;10.90;5.18;;;1.80;99.90;;;;;;5100963;28;20043;-74
2021/01/06 01:59:58;;;;;;;7.25;4.60;;;1.90;99.90;;;;;;5103347;28;20035;-74
2021/01/06 02:02:43;;;;;;;7.15;4.60;;;1.90;99.90;;;;;;5101457;28;20473;-74
2021/01/06 02:05:19;;;;;;;8.60;4.60;;;1.90;99.90;;;;;;5097627;28;20069;-73
2021/01/06 02:07:51;;;;;;;;;;;1.90;99.90;;;;;;5106516;28;20044;-74
2021/01/06 02:10:32;;;;;;;8.63;4.88;;;1.90;99.90;;;;;;5094223;28;19985;-74
2021/01/06 02:13:26;;;;;;;9.40;5.03;;;1.90;99.90;;;;;;5093669;28;20043;-75
2021/01/06 02:15:59;;;;;;;9.82;5.35;;;1.90;99.90;;;;;;5093328;28;20055;-73
2021/01/06 02:18:25;;;;;;;10.43;5.32;;;1.90;99.90;;;;;;5095466;28;20081;-74
2021/01/06 02:21:21;;;;;;;9.95;4.78;;;1.90;99.90;;;;;;5093519;28;20040;-74
2021/01/06 02:23:52;;;;;;;7.78;5.18;;;1.90;99.90;;;;;;5093416;28;20385;-74
2021/01/06 02:26:20;;;;;;;11.90;5.10;;;1.90;99.90;;;;;;5098455;28;20369;-74
2021/01/06 02:28:47;;;;;;;8.38;5.00;;;1.90;99.90;;;;;;5097632;28;20114;-74
2021/01/06 02:31:14;;;;;;;8.77;4.85;;;1.90;99.90;;;;;;5100626;28;20040;-74
2021/01/06 02:33:41;;;;;;;8.65;5.25;;;1.90;99.90;;;;;;5104198;28;20063;-76
2021/01/06 02:36:09;;;;;;;7.85;5.07;;;1.90;99.90;;;;;;5100826;28;20039;-75
2021/01/06 02:38:35;;;;;;;10.05;5.22;;;1.90;99.90;;;;;;5108275;28;20046;-74
2021/01/06 02:41:01;;;;;;;10.20;5.10;;;1.90;99.90;;;;;;5104558;28;20047;-74
2021/01/06 02:43:27;;;;;;;;;;;1.80;99.90;;;;;;5094750;28;20032;-75
2021/01/06 02:45:54;;;;;;;8.98;4.85;;;1.80;99.90;;;;;;5107573;28;19916;-75
2021/01/06 02:48:20;;;;;;;11.65;5.68;;;1.90;99.90;;;;;;5103947;28;20113;-75
2021/01/06 02:50:50;;;;;;;13.55;5.32;;;1.80;99.90;;;;;;5111874;28;20035;-76
2021/01/06 02:53:28;;;;;;;10.00;5.07;;;1.80;99.90;;;;;;5110642;28;20044;-76
2021/01/06 02:55:55;;;;;;;13.63;5.63;;;1.80;99.90;;;;;;5106762;28;20115;-76
2021/01/06 02:58:23;;;;;;;12.65;5.38;;;1.80;99.90;;;;;;5099250;28;20028;-75
2021/01/06 03:00:51;;;;;;;12.00;5.30;;;1.90;99.90;;;;;;5104203;27;20047;-74
2021/01/06 03:03:19;;;;;;;10.27;5.03;;;1.90;99.90;;;;;;5096026;28;20032;-75
2021/01/06 03:05:56;;;;;;;9.70;5.07;;;1.90;99.90;;;;;;5092832;28;20507;-75
2021/01/06 03:08:21;;;;;;;9.93;4.97;;;1.90;99.90;;;;;;5092912;28;20419;-74
2021/01/06 03:10:47;;;;;;;8.48;4.53;;;1.90;99.90;;;;;;5092858;28;20056;-75
2021/01/06 03:13:13;;;;;;;8.52;4.63;;;1.90;99.90;;;;;;5092460;28;20032;-74
2021/01/06 03:15:39;;;;;;;10.27;4.60;;;1.90;99.90;;;;;;5092507;28;20058;-75
2021/01/06 03:18:05;;;;;;;8.73;4.82;;;1.90;99.90;;;;;;5097644;28;20032;-76
2021/01/06 03:20:46;;;;;;;9.15;4.47;;;1.90;99.90;;;;;;5092633;28;20040;-76
2021/01/06 03:23:38;;;;;;;8.98;4.38;;;1.90;99.90;;;;;;5099317;28;20036;-74
2021/01/06 03:26:06;;;;;;;7.78;3.92;;;1.90;99.90;;;;;;5090822;28;20087;-75
2021/01/06 03:28:34;;;;;;;11.30;5.00;;;1.90;99.90;;;;;;5102707;28;20055;-76
2021/01/06 03:31:04;;;;;;;9.70;5.10;;;1.90;99.90;;;;;;5112867;28;20035;-74
2021/01/06 03:33:39;;;;;;;6.18;3.80;;;1.90;99.90;;;;;;5098520;28;20447;-75
2021/01/06 03:36:08;;;;;;;11.27;4.47;;;1.90;99.90;;;;;;5112759;27;20040;-74
2021/01/06 03:38:47;;;;;;;8.32;4.03;;;1.90;99.90;;;;;;5094238;28;20082;-75
2021/01/06 03:41:14;;;;;;;9.93;4.63;;;1.90;99.90;;;;;;5095481;28;20032;-74
2021/01/06 03:43:47;;;;;;;8.85;4.63;;;2.20;99.90;;;;;;5104686;28;20031;-75
2021/01/06 03:46:38;;;;;;;6.90;5.03;;;1.90;99.90;;;;;;5091421;28;20451;-74
2021/01/06 03:49:31;;;;;;;7.90;4.32;;;1.90;99.90;;;;;;5096532;28;20110;-75
2021/01/06 03:52:09;;;;;;;9.90;3.85;;;1.90;99.90;;;;;;5105039;28;20460;-74
2021/01/06 03:54:41;;;;;;;7.45;4.30;;;1.80;99.90;;;;;;5093121;28;20130;-75
2021/01/06 03:57:08;;;;;;;9.02;4.55;;;1.80;99.90;;;;;;5091810;28;20032;-74
2021/01/06 03:59:38;;;;;;;10.48;4.07;;;1.80;99.90;;;;;;5107512;27;20122;-74
2021/01/06 04:02:36;;;;;;;6.93;4.00;;;1.80;99.90;;;;;;5095380;27;20040;-76
2021/01/06 04:05:07;;;;;;;8.00;4.18;;;1.80;99.90;;;;;;5091537;28;20051;-74
2021/01/06 04:07:53;;;;;;;6.88;3.72;;;1.80;99.90;;;;;;5105658;28;20042;-75
2021/01/06 04:10:34;;;;;;;7.80;4.27;;;1.80;99.90;;;;;;5114788;28;20059;-74
2021/01/06 04:13:00;;;;;;;9.07;3.85;;;1.80;99.90;;;;;;5121477;28;20063;-73
2021/01/06 04:15:26;;;;;;;8.05;4.13;;;1.80;99.90;;;;;;5106295;28;20040;-74
2021/01/06 04:17:53;;;;;;;;;;;1.70;99.90;;;;;;5106529;28;20039;-76
2021/01/06 04:20:31;;;;;;;9.70;4.13;;;1.70;99.90;;;;;;5091918;28;19915;-74
2021/01/06 04:23:12;;;;;;;7.22;4.15;;;1.70;99.90;;;;;;5091663;28;20040;-76
2021/01/06 04:25:41;;;;;;;8.40;4.35;;;1.70;99.90;;;;;;5092131;28;20047;-74
2021/01/06 04:28:18;;;;;;;7.03;4.00;;;1.70;99.90;;;;;;5108811;28;20036;-75
2021/01/06 04:30:50;;;;;;;5.80;3.75;;;1.70;99.90;;;;;;5107517;28;20369;-74
2021/01/06 04:33:20;;;;;;;7.03;4.00;;;1.70;99.90;;;;;;5100095;28;20047;-74
2021/01/06 04:35:46;;;;;;;7.70;3.90;;;1.70;99.90;;;;;;5100288;27;20372;-73
2021/01/06 04:38:18;;;;;;;8.00;4.72;;;1.70;99.90;;;;;;5093645;27;20044;-74
2021/01/06 04:40:46;;;;;;;8.57;4.43;;;1.60;99.90;;;;;;5104669;28;20472;-74
2021/01/06 04:43:24;;;;;;;7.45;3.92;;;1.60;99.90;;;;;;5101413;28;20047;-75
2021/01/06 04:46:14;;;;;;;8.80;3.97;;;1.70;99.90;;;;;;5106148;28;20063;-75
2021/01/06 04:48:47;;;;;;;7.88;4.03;;;1.60;99.90;;;;;;5103539;28;20032;-75
2021/01/06 04:51:25;;;;;;;7.30;3.33;;;1.60;99.90;;;;;;5111526;28;20036;-74
2021/01/06 04:54:02;;;;;;;7.03;3.63;;;1.70;99.90;;;;;;5090564;28;20028;-75
2021/01/06 04:56:50;;;;;;;7.60;3.75;;;1.60;99.90;;;;;;5093130;28;20066;-75
2021/01/06 04:59:22;;;;;;;7.18;3.22;;;1.60;99.90;;;;;;5092330;28;20131;-76
2021/01/06 05:02:25;;;;;;;7.45;3.35;;;1.60;99.90;;;;;;5114342;27;20035;-75
2021/01/06 05:05:18;;;;;;;7.47;3.50;;;1.60;99.90;;;;;;5107504;28;20039;-75
2021/01/06 05:08:14;;;;;;;6.82;3.40;;;1.60;99.90;;;;;;5106113;28;20066;-74
2021/01/06 05:10:44;;;;;;;7.80;3.47;;;1.60;99.90;;;;;;5107987;28;20047;-75
2021/01/06 05:13:19;;;;;;;7.63;3.75;;;1.60;99.90;;;;;;5099742;28;20071;-75
2021/01/06 05:15:54;;;;;;;8.65;3.90;;;1.70;99.90;;;;;;5115466;28;20043;-75
2021/01/06 05:18:20;;;;;;;8.38;3.42;;;1.70;99.90;;;;;;5103519;28;20081;-74
2021/01/06 05:20:46;;;;;;;9.00;3.17;;;1.70;99.90;;;;;;5112107;28;20040;-74
2021/01/06 05:23:17;;;;;;;6.32;3.08;;;1.70;99.90;;;;;;5100339;28;20032;-75
2021/01/06 05:25:44;;;;;;;5.53;3.20;;;1.80;99.90;;;;;;5103966;28;20488;-74
2021/01/06 05:28:15;;;;;;;6.90;2.83;;;1.80;99.90;;;;;;5104378;28;20044;-74
2021/01/06 05:30:43;;;;;;;8.93;3.42;;;1.80;99.90;;;;;;5111363;28;20164;-75
2021/01/06 05:33:14;;;;;;;7.47;3.22;;;1.80;99.90;;;;;;5111194;27;20055;-74
2021/01/06 05:35:46;;;;;;;4.47;2.70;;;1.80;99.90;;;;;;5099596;28;20093;-75
2021/01/06 05:38:12;;;;;;;6.43;3.28;;;1.80;99.90;;;;;;5111902;28;20115;-72
2021/01/06 05:40:40;;;;;;;5.35;3.15;;;1.80;99.90;;;;;;5102282;28;20035;-74
2021/01/06 05:43:17;;;;;;;6.35;3.00;;;1.80;99.90;;;;;;5101012;28;20069;-75
2021/01/06 05:45:53;;;;;;;5.57;3.10;;;1.90;99.90;;;;;;5097787;28;20085;-74
2021/01/06 05:48:27;;;;;;;7.57;3.22;;;1.90;99.90;;;;;;5102940;28;20093;-74
2021/01/06 05:51:10;;;;;;;4.43;2.55;;;1.90;99.90;;;;;;5102197;28;20040;-75
2021/01/06 05:53:47;;;;;;;9.23;2.72;;;1.90;99.90;;;;;;5097850;28;20150;-74
2021/01/06 05:56:34;;;;;;;8.65;2.92;;;1.90;99.90;;;;;;5115797;27;20050;-74
2021/01/06 05:59:17;;;;;;;5.05;3.22;;;1.90;99.90;;;;;;5098354;28;20036;-75
2021/01/06 06:01:53;;;;;;;9.48;2.90;;;1.90;99.90;;;;;;5118604;27;20493;-74
2021/01/06 06:04:37;;;;;;;7.15;3.22;;;1.90;99.90;;;;;;5097724;28;20477;-75
2021/01/06 06:07:11;;;;;;;8.00;3.40;;;1.90;99.90;;;;;;5103690;28;20440;-75
2021/01/06 06:09:48;;;;;;;3.88;2.45;;;1.90;99.90;;;;;;5101717;28;20052;-75
2021/01/06 06:12:51;;;;;;;5.60;2.80;;;1.90;99.90;;;;;;5106306;28;20470;-74
2021/01/06 06:15:54;;;;;;;6.25;2.72;;;1.90;99.90;;;;;;5113384;27;20040;-75
2021/01/06 06:18:36;;;;;;;6.38;2.92;;;1.90;99.90;;;;;;5101389;28;20032;-74
2021/01/06 06:21:29;;;;;;;5.70;2.67;;;1.90;99.90;;;;;;5093733;28;20031;-73
2021/01/06 06:24:13;;;;;;;6.80;3.22;;;1.90;99.90;;;;;;5093726;28;20107;-73
2021/01/06 06:27:03;;;;;;;6.22;3.33;;;1.90;99.90;;;;;;5105542;28;20046;-75
2021/01/06 06:29:42;;;;;;;4.75;2.58;;;1.90;99.90;;;;;;5097149;28;20501;-75
2021/01/06 06:32:08;;;;;;;9.35;3.20;;;1.90;99.90;;;;;;5101746;28;20036;-75
2021/01/06 06:34:37;;;;;;;6.30;3.28;;;1.90;99.90;;;;;;5094504;28;20473;-74
2021/01/06 06:37:09;;;;;;;5.53;2.72;;;1.90;99.90;;;;;;5104542;28;20039;-75
2021/01/06 06:39:47;;;;;;;5.43;2.92;;;1.90;99.90;;;;;;5108766;28;20042;-74
2021/01/06 06:42:33;;;;;;;4.22;2.42;;;1.80;99.90;;;;;;5101173;28;20069;-74
2021/01/06 06:45:23;;;;;;;8.23;3.40;;;1.90;99.90;;;;;;5101677;28;20039;-74
2021/01/06 06:47:51;;;;;;;6.95;2.85;;;1.90;99.90;;;;;;5095479;28;20036;-75
2021/01/06 06:50:39;;;;;;;6.35;2.88;;;1.90;99.90;;;;;;5093588;28;20466;-75
2021/01/06 06:53:46;;;;;;;4.97;3.10;;;1.90;99.90;;;;;;5103417;28;20040;-75
2021/01/06 06:56:43;;;;;;;7.18;3.05;;;1.90;99.90;;;;;;5093499;28;20122;-76
2021/01/06 06:59:24;;;;;;;6.07;2.88;;;1.90;99.90;;;;;;5100177;28;20032;-75
2021/01/06 07:01:52;;;;;;;6.07;2.60;;;1.80;99.90;;;;;;5107236;28;20039;-76
2021/01/06 07:04:17;;;;;;;8.80;3.30;;;1.80;99.90;;;;;;5092483;28;20158;-76
2021/01/06 07:07:04;;;;;;;;;;;1.80;99.90;;;;;;5096142;28;20036;-75
2021/01/06 07:09:34;;;;;;;7.00;3.42;;;1.80;99.90;;;;;;5099021;28;19938;-74
2021/01/06 07:12:07;;;;;;;6.68;2.92;;;1.80;99.90;;;;;;5094330;28;20043;-75
2021/01/06 07:14:39;;;;;;;4.93;2.97;;;1.80;99.90;;;;;;5102331;27;20083;-75
2021/01/06 07:17:14;;;;;;;6.15;2.90;;;1.80;99.90;;;;;;5094299;28;20035;-77
2021/01/06 07:19:49;;;;;;;6.20;2.80;;;1.80;99.90;;;;;;5104688;28;20479;-76
2021/01/06 07:22:22;;;;;;;7.45;3.30;;;1.80;99.90;;;;;;5093074;28;20388;-77
2021/01/06 07:25:03;;;;;;;7.03;3.08;;;1.70;99.90;;;;;;5092665;28;20069;-79
2021/01/06 07:27:34;;;;;;;7.45;2.83;;;1.80;99.90;;;;;;5101702;28;20035;-79
2021/01/06 07:30:00;;;;;;;5.80;3.83;;;1.70;99.90;;;;;;5101851;28;20039;-76
2021/01/06 07:32:33;;;;;;;;;;;1.80;99.90;;;;;;5107182;28;20164;-77
2021/01/06 07:34:59;;;;;;;6.15;2.83;;;1.80;99.90;;;;;;5104151;28;20014;-79
2021/01/06 07:37:37;;;;;;;6.88;2.85;;;1.80;99.90;;;;;;5093339;28;20115;-76
2021/01/06 07:40:15;;;;;;;9.55;3.25;;;1.80;99.90;;;;;;5089696;28;20040;-77
2021/01/06 07:42:44;;;;;;;5.70;2.97;;;1.80;99.90;;;;;;5089535;28;20047;-80
2021/01/06 07:45:24;;;;;;;5.22;2.83;;;1.80;99.90;;;;;;5093893;28;20044;-79
2021/01/06 07:48:05;;;;;;;5.82;3.22;;;1.80;99.90;;;;;;5105847;28;20077;-76
2021/01/06 07:50:34;;;;;;;8.18;4.28;;;1.80;99.90;;;;;;5104266;28;20032;-74
2021/01/06 07:53:07;;;;;;;7.32;3.63;;;1.80;99.90;;;;;;5098018;28;20388;-77
2021/01/06 07:55:42;;;;;;;5.68;3.70;;;1.80;99.90;;;;;;5106582;28;20571;-78
2021/01/06 07:58:17;;;;;;;6.40;2.92;;;1.80;99.90;;;;;;5105821;28;20096;-78
2021/01/06 08:00:55;;;;;;;6.07;2.80;;;1.80;99.90;;;;;;5093554;28;20040;-77
2021/01/06 08:03:42;;;;;;;6.30;3.15;;;1.80;99.90;;;;;;5104316;28;20036;-78
2021/01/06 08:06:09;;;;;;;5.28;2.58;;;1.80;99.90;;;;;;5107622;28;20055;-79
2021/01/06 08:08:45;;;;;;;5.00;3.00;;;1.80;99.90;;;;;;5095326;28;20051;-82
2021/01/06 08:11:14;;;;;;;5.60;3.25;;;1.80;99.90;;;;;;5101190;28;20093;-77
2021/01/06 08:13:59;;;;;;;5.95;2.95;;;1.80;99.90;;;;;;5089532;28;20055;-76
2021/01/06 08:16:51;;;;;;;4.60;2.78;;;1.80;99.90;;;;;;5096366;28;20039;-80
2021/01/06 08:19:28;;;;;;;5.60;3.40;;;1.80;99.90;;;;;;5097096;28;20035;-77
2021/01/06 08:22:09;;;;;;;6.15;2.90;;;1.80;99.90;;;;;;5092282;28;20097;-76
2021/01/06 08:25:13;;;;;;;9.55;2.83;;;1.80;99.90;;;;;;5088451;28;20063;-78
2021/01/06 08:27:39;;;;;;;6.20;2.88;;;1.80;99.90;;;;;;5087042;28;20698;-80
2021/01/06 08:30:13;;;;;;;4.95;2.60;;;1.90;99.90;;;;;;5098191;27;20115;-77
2021/01/06 08:32:40;;;;;;;8.23;2.90;;;1.90;99.90;;;;;;5088349;28;20099;-77
2021/01/06 08:35:14;;;;;;;6.30;3.30;;;1.90;99.90;;;;;;5099773;28;20513;-78
2021/01/06 08:37:40;;;;;;;5.03;3.28;;;1.90;99.90;;;;;;5091774;28;20047;-76
2021/01/06 08:40:35;;;;;;;6.03;3.13;;;1.90;99.90;;;;;;5122718;27;20036;-77
2021/01/06 08:43:10;;;;;;;5.90;3.15;;;1.90;99.90;;;;;;5090313;28;20038;-75
2021/01/06 08:45:39;;;;;;;5.78;3.33;;;2.00;99.90;;;;;;5095398;27;20031;-76
2021/01/06 08:48:25;;;;;;;4.68;2.58;;;2.00;99.90;;;;;;5090235;27;20046;-76
2021/01/06 08:50:52;;;;;;;4.78;2.53;;;1.90;99.90;;;;;;5090861;28;20039;-75
2021/01/06 08:53:33;;;;;;;5.03;2.58;;;2.00;99.90;;;;;;5088952;28;20096;-78
2021/01/06 08:56:01;;;;;;;6.28;2.83;;;2.00;99.90;;;;;;5086321;28;20063;-77
2021/01/06 08:58:56;;;;;;;7.20;2.92;;;2.00;99.90;;;;;;5090018;28;20100;-77
2021/01/06 09:01:41;;;;;;;4.53;3.03;;;2.00;99.90;;;;;;5093255;28;20085;-78
2021/01/06 09:04:16;;;;;;;8.98;3.80;;;1.90;99.90;;;;;;5103707;28;20136;-76
2021/01/06 09:06:53;;;;;;;5.50;3.33;;;2.00;99.90;;;;;;5107036;28;20767;-79
2021/01/06 09:09:40;;;;;;;5.45;3.58;;;2.00;99.90;;;;;;5107594;28;20036;-76
2021/01/06 09:12:47;;;;;;;4.93;3.38;;;2.00;99.90;;;;;;5105397;28;20618;-79
2021/01/06 09:15:24;;;;;;;5.15;3.33;;;2.00;99.90;;;;;;5082532;28;20595;-79
2021/01/06 09:18:06;;;;;;;10.45;3.63;;;2.00;99.90;;;;;;5092214;28;20064;-79
2021/01/06 09:21:04;;;;;;;5.40;3.05;;;2.00;99.90;;;;;;5106443;28;20044;-78
2021/01/06 09:23:31;;;;;;;5.38;2.53;;;2.00;99.90;;;;;;5084353;28;20093;-76
2021/01/06 09:26:00;;;;;;;5.95;2.92;;;2.20;99.90;;;;;;5099187;28;20032;-77
2021/01/06 09:28:27;;;;;;;4.97;3.20;;;2.00;99.90;;;;;;5088250;28;20036;-75
2021/01/06 09:30:53;;;;;;;5.20;3.00;;;2.00;99.90;;;;;;5090158;28;20043;-78
2021/01/06 09:33:29;;;;;;;6.38;3.20;;;2.00;99.90;;;;;;5101018;28;20032;-77
2021/01/06 09:35:56;;;;;;;6.97;3.07;;;2.00;99.90;;;;;;5099282;28;20039;-80
2021/01/06 09:38:42;;;;;;;7.15;3.55;;;2.00;99.90;;;;;;5096530;28;20046;-80
2021/01/06 09:41:14;;;;;;;4.35;2.65;;;1.90;99.90;;;;;;5088233;28;20048;-78
2021/01/06 09:43:47;;;;;;;6.05;3.08;;;1.80;99.90;;;;;;5093604;28;20076;-80
2021/01/06 09:46:31;;;;;;;7.80;4.07;;;1.70;99.90;;;;;;5101263;28;20047;-77
2021/01/06 09:49:21;;;;;;;8.25;3.33;;;1.60;99.90;;;;;;5087421;28;20072;-79
2021/01/06 09:51:51;;;;;;;8.52;3.15;;;1.50;99.90;;;;;;5091126;28;20047;-77
2021/01/06 09:54:17;;;;;;;6.95;3.75;;;1.60;99.90;;;;;;5101869;28;20067;-77
2021/01/06 09:56:44;;;;;;;5.70;3.50;;;1.40;99.90;;;;;;5100965;28;20589;-77
2021/01/06 09:59:27;;;;;;;6.38;3.33;;;1.40;99.90;;;;;;5097953;28;20373;-79
2021/01/06 10:02:14;;;;;;;7.28;3.75;;;1.40;99.90;;;;;;5109274;27;20464;-77
2021/01/06 10:04:42;;;;;;;6.85;4.03;;;1.40;99.90;;;;;;5101214;28;20704;-78
2021/01/06 10:07:14;;;;;;;6.47;2.90;;;1.50;99.90;;;;;;5095521;28;20068;-77
2021/01/06 10:09:47;;;;;;;6.97;3.83;;;1.50;99.90;;;;;;5094926;28;20052;-76
2021/01/06 10:12:32;;;;;;;6.57;3.85;;;1.50;99.90;;;;;;5094166;28;20485;-78
2021/01/06 10:15:55;;;;;;;6.55;3.50;;;1.50;99.90;;;;;;5096764;28;20043;-78
2021/01/06 10:18:23;;;;;;;6.55;3.28;;;1.50;99.90;;;;;;5082025;28;20714;-77
2021/01/06 10:21:14;;;;;;;7.72;4.05;;;1.60;99.90;;;;;;5085519;28;20151;-80
2021/01/06 10:23:49;;;;;;;9.45;4.00;;;1.60;99.90;;;;;;5090632;27;20138;-78
2021/01/06 10:26:45;;;;;;;5.20;3.10;;;1.60;99.90;;;;;;5092840;28;20551;-77
2021/01/06 10:29:19;;;;;;;7.72;4.10;;;1.70;99.90;;;;;;5102178;28;20128;-76
2021/01/06 10:32:20;;;;;;;9.52;4.15;;;1.70;99.90;;;;;;5094215;28;20422;-76
2021/01/06 10:34:48;;;;;;;9.15;3.80;;;1.80;99.90;;;;;;5098905;28;20036;-75
2021/01/06 10:37:29;;;;;;;6.85;3.63;;;1.80;99.90;;;;;;5102720;28;20063;-80
2021/01/06 10:39:59;;;;;;;7.13;3.47;;;1.80;99.90;;;;;;5098346;28;20032;-76
2021/01/06 10:42:25;;;;;;;5.85;3.42;;;1.90;99.90;;;;;;5092440;28;20032;-80
2021/01/06 10:44:53;;;;;;;5.13;3.30;;;2.00;99.90;;;;;;5103689;28;20099;-76
2021/01/06 10:47:31;;;;;;;5.93;3.17;;;1.90;99.90;;;;;;5099108;28;20032;-77
2021/01/06 10:50:29;;;;;;;7.65;2.80;;;1.90;99.90;;;;;;5099641;28;20122;-79
2021/01/06 10:53:13;;;;;;;5.03;3.00;;;1.80;99.90;;;;;;5102235;28;20054;-78
2021/01/06 10:55:50;;;;;;;4.15;2.60;;;1.80;99.90;;;;;;5110916;28;20415;-80
2021/01/06 10:58:22;;;;;;;6.50;3.05;;;1.80;99.90;;;;;;5097857;28;20055;-76
2021/01/06 11:00:50;;;;;;;4.55;2.88;;;1.70;99.90;;;;;;5130521;27;20034;-78
2021/01/06 11:03:19;;;;;;;4.93;2.83;;;1.80;99.90;;;;;;5107115;27;20044;-76
2021/01/06 11:05:53;;;;;;;7.05;3.45;;;1.70;99.90;;;;;;5093571;28;20123;-76
2021/01/06 11:08:57;;;;;;;5.18;3.33;;;1.70;99.90;;;;;;5097012;28;20043;-77
2021/01/06 11:11:59;;;;;;;5.95;3.30;;;1.70;99.90;;;;;;5092361;28;20047;-76
2021/01/06 11:14:43;;;;;;;5.55;3.00;;;1.70;99.90;;;;;;5101824;28;20047;-78
2021/01/06 11:17:15;;;;;;;5.03;2.75;;;1.60;99.90;;;;;;5091797;28;20040;-78
2021/01/06 11:19:40;;;;;;;3.97;2.65;;;1.60;99.90;;;;;;5096033;28;20064;-75
2021/01/06 11:22:46;;;;;;;4.05;2.40;;;1.60;99.90;;;;;;5092843;28;20055;-76
2021/01/06 11:25:35;;;;;;;5.07;2.80;;;1.60;99.90;;;;;;5089429;28;20044;-78
2021/01/06 11:28:03;;;;;;;5.70;3.03;;;1.60;99.90;;;;;;5088012;28;20036;-76
2021/01/06 11:30:40;;;;;;;5.25;3.60;;;1.60;99.90;;;;;;5103015;28;20051;-77
2021/01/06 11:33:25;;;;;;;;;;;1.70;99.90;;;;;;5093733;28;20051;-79
2021/01/06 11:36:20;;;;;;;6.32;2.90;;;1.70;99.90;;;;;;5090663;28;19916;-80
2021/01/06 11:38:53;;;;;;;3.35;2.13;;;1.60;99.90;;;;;;5091342;28;20055;-76
2021/01/06 11:41:42;;;;;;;6.53;2.83;;;1.60;99.90;;;;;;5093446;28;20048;-75
2021/01/06 11:44:57;;;;;;;4.95;2.92;;;1.60;99.90;;;;;;5094205;27;20053;-76
2021/01/06 11:47:56;;;;;;;5.38;2.70;;;1.60;99.90;;;;;;5098894;27;20063;-75
2021/01/06 11:50:49;;;;;;;3.85;2.60;;;1.60;99.90;;;;;;5091470;28;20040;-76
2021/01/06 11:53:40;;;;;;;4.80;2.63;;;1.60;99.90;;;;;;5095736;28;20119;-77
2021/01/06 11:56:25;;;;;;;6.53;2.47;;;1.50;99.90;;;;;;5108198;27;20483;-76
2021/01/06 11:59:16;;;;;;;4.20;2.63;;;1.60;99.90;;;;;;5094050;28;20066;-77
2021/01/06 12:02:20;;;;;;;7.18;3.20;;;1.70;99.90;;;;;;5105107;28;20106;-76
2021/01/06 12:05:04;;;;;;;4.82;3.00;;;1.60;99.90;;;;;;5093067;28;20084;-76
2021/01/06 12:07:35;;;;;;;4.80;2.80;;;1.70;99.90;;;;;;5099952;28;20396;-76
2021/01/06 12:10:27;;;;;;;5.47;3.28;;;1.70;99.90;;;;;;5091861;28;20047;-76
2021/01/06 12:12:59;;;;;;;7.03;2.85;;;1.80;99.90;;;;;;5074544;28;20170;-76
2021/01/06 12:15:42;;;;;;;5.00;2.63;;;1.80;99.90;;;;;;5076521;28;20060;-76
2021/01/06 12:18:30;;;;;;;7.28;4.40;;;1.80;99.90;;;;;;5074572;28;20434;-76
2021/01/06 12:20:58;;;;;;;5.20;2.67;;;1.80;99.90;;;;;;5085517;28;20044;-76
2021/01/06 12:23:44;;;;;;;8.10;6.10;;;1.80;99.90;;;;;;5080158;28;20041;-77
2021/01/06 12:27:12;;;;;;;9.30;8.18;;;1.80;99.90;;;;;;5086668;28;20036;-80
2021/01/06 12:29:46;;;;;;;5.75;2.97;;;1.80;99.90;;;;;;5017740;28;20065;-81
2021/01/06 12:32:39;;;;;;;8.77;5.75;;;2.30;99.90;;;;;;5032697;28;20120;-80
2021/01/06 12:35:26;;;;;;;7.38;5.32;;;1.70;99.90;;;;;;5075043;28;20052;-80
2021/01/06 12:38:11;;;;;;;7.63;4.57;;;1.80;99.90;;;;;;5069218;28;20055;-81
2021/01/06 12:40:52;;;;;;;8.38;6.20;;;1.80;99.90;;;;;;5083035;28;20139;-80
2021/01/06 12:43:24;;;;;;;9.70;5.25;;;1.80;99.90;;;;;;5088143;28;20563;-79
2021/01/06 12:46:11;;;;;;;7.35;4.40;;;1.90;99.90;;;;;;5094315;27;20064;-80
2021/01/06 12:48:48;;;;;;;;;;;1.90;99.90;;;;;;5098541;28;20517;-81
2021/01/06 12:51:26;;;;;;;6.53;2.75;;;1.90;99.90;;;;;;5101844;28;19920;-80
2021/01/06 12:54:00;;;;;;;4.45;2.67;;;1.90;99.90;;;;;;5094499;28;20032;-79
2021/01/06 12:57:04;;;;;;;4.65;2.97;;;2.00;99.90;;;;;;5092258;28;20040;-78
2021/01/06 12:59:42;;;;;;;4.82;2.33;;;2.00;99.90;;;;;;5092335;27;20058;-82
2021/01/06 13:02:32;;;;;;;5.32;2.83;;;1.90;99.90;;;;;;5091560;28;20050;-80
2021/01/06 13:05:24;;;;;;;7.30;3.22;;;1.80;99.90;;;;;;5089916;28;20123;-79
2021/01/06 13:07:52;;;;;;;7.30;3.63;;;1.70;99.90;;;;;;5095558;28;20044;-79
2021/01/06 13:10:18;;;;;;;5.40;3.42;;;1.70;99.90;;;;;;5090063;28;20493;-79
2021/01/06 13:12:57;;;;;;;14.27;9.85;;;2.20;99.90;;;;;;5100724;28;20046;-77
2021/01/06 13:15:42;;;;;;;6.00;3.20;;;1.70;99.90;;;;;;5101880;28;20068;-78
2021/01/06 13:18:13;;;;;;;6.70;3.20;;;1.70;99.90;;;;;;5098841;28;20043;-78
2021/01/06 13:21:04;;;;;;;4.43;2.92;;;1.70;99.90;;;;;;5086817;28;20036;-78
2021/01/06 13:23:41;;;;;;;4.20;2.53;;;1.70;99.90;;;;;;5087139;28;20461;-80
2021/01/06 13:26:25;;;;;;;5.10;3.00;;;1.70;99.90;;;;;;5099796;28;20456;-80
2021/01/06 13:28:59;;;;;;;8.07;3.28;;;1.70;99.90;;;;;;5104170;28;20107;-77
2021/01/06 13:31:45;;;;;;;6.05;3.17;;;1.80;99.90;;;;;;5094716;28;20153;-78
2021/01/06 13:34:39;;;;;;;11.90;4.72;;;1.70;99.90;;;;;;5101407;28;20046;-80
2021/01/06 13:37:07;;;;;;;8.90;6.20;;;1.70;99.90;;;;;;5104974;28;20027;-79
2021/01/06 13:39:42;;;;;;;5.07;4.10;;;1.70;99.90;;;;;;5109814;28;20039;-78
2021/01/06 13:42:32;;;;;;;12.27;6.15;;;1.70;99.90;;;;;;5108699;28;20047;-76
2021/01/06 13:45:31;;;;;;;8.93;4.30;;;1.70;99.90;;;;;;5093067;28;20063;-77
2021/01/06 13:48:34;;;;;;;7.75;4.18;;;1.80;99.90;;;;;;5102814;28;20040;-75